sensor_id;sensor_type;location;lat;lon;timestamp;P1;durP1;ratioP1;P2;durP2;ratioP2
29218;SDS011;16421;50.202;7.852;2023-08-08T00:01:36;2.22;;;0.80;;
29218;SDS011;16421;50.202;7.852;2023-08-08T00:06:42;0.47;;;0.43;;
29218;SDS011;16421;50.202;7.852;2023-08-08T00:11:46;0.53;;;0.40;;
29218;SDS011;16421;50.202;7.852;2023-08-08T00:16:53;0.50;;;0.50;;
29218;SDS011;16421;50.202;7.852;2023-08-08T00:21:59;0.80;;;0.60;;
29218;SDS011;16421;50.202;7.852;2023-08-08T00:27:03;0.70;;;0.57;;
29218;SDS011;16421;50.202;7.852;2023-08-08T00:32:07;0.57;;;0.40;;
29218;SDS011;16421;50.202;7.852;2023-08-08T00:37:13;0.52;;;0.50;;
29218;SDS011;16421;50.202;7.852;2023-08-08T00:42:17;0.75;;;0.60;;
29218;SDS011;16421;50.202;7.852;2023-08-08T00:47:24;0.75;;;0.60;;
29218;SDS011;16421;50.202;7.852;2023-08-08T00:52:30;0.60;;;0.60;;
29218;SDS011;16421;50.202;7.852;2023-08-08T00:57:38;0.40;;;0.40;;
29218;SDS011;16421;50.202;7.852;2023-08-08T01:02:44;0.88;;;0.40;;
29218;SDS011;16421;50.202;7.852;2023-08-08T01:07:52;0.52;;;0.43;;
29218;SDS011;16421;50.202;7.852;2023-08-08T01:12:59;3.42;;;0.75;;
29218;SDS011;16421;50.202;7.852;2023-08-08T01:18:08;0.52;;;0.52;;
29218;SDS011;16421;50.202;7.852;2023-08-08T01:23:16;1.95;;;0.45;;
29218;SDS011;16421;50.202;7.852;2023-08-08T01:28:30;0.60;;;0.60;;
29218;SDS011;16421;50.202;7.852;2023-08-08T01:33:35;1.38;;;0.63;;
29218;SDS011;16421;50.202;7.852;2023-08-08T01:38:40;1.15;;;0.47;;
29218;SDS011;16421;50.202;7.852;2023-08-08T01:43:47;0.80;;;0.80;;
29218;SDS011;16421;50.202;7.852;2023-08-08T01:48:52;0.60;;;0.50;;
29218;SDS011;16421;50.202;7.852;2023-08-08T01:53:56;1.13;;;0.57;;
29218;SDS011;16421;50.202;7.852;2023-08-08T01:59:02;0.60;;;0.50;;
29218;SDS011;16421;50.202;7.852;2023-08-08T02:04:07;1.80;;;0.65;;
29218;SDS011;16421;50.202;7.852;2023-08-08T02:09:11;4.00;;;0.63;;
29218;SDS011;16421;50.202;7.852;2023-08-08T02:14:18;1.47;;;0.50;;
29218;SDS011;16421;50.202;7.852;2023-08-08T02:24:28;0.63;;;0.55;;
29218;SDS011;16421;50.202;7.852;2023-08-08T02:29:34;0.47;;;0.47;;
29218;SDS011;16421;50.202;7.852;2023-08-08T02:34:38;0.60;;;0.50;;
29218;SDS011;16421;50.202;7.852;2023-08-08T02:39:43;0.65;;;0.57;;
29218;SDS011;16421;50.202;7.852;2023-08-08T02:44:51;2.35;;;0.47;;
29218;SDS011;16421;50.202;7.852;2023-08-08T02:49:55;0.70;;;0.60;;
29218;SDS011;16421;50.202;7.852;2023-08-08T02:55:01;0.93;;;0.57;;
29218;SDS011;16421;50.202;7.852;2023-08-08T03:00:10;0.50;;;0.50;;
29218;SDS011;16421;50.202;7.852;2023-08-08T03:05:19;1.50;;;0.50;;
29218;SDS011;16421;50.202;7.852;2023-08-08T03:10:23;0.90;;;0.60;;
29218;SDS011;16421;50.202;7.852;2023-08-08T03:15:31;0.88;;;0.52;;
29218;SDS011;16421;50.202;7.852;2023-08-08T03:20:48;2.25;;;0.65;;
29218;SDS011;16421;50.202;7.852;2023-08-08T03:26:07;0.70;;;0.55;;
29218;SDS011;16421;50.202;7.852;2023-08-08T03:31:13;0.60;;;0.60;;
29218;SDS011;16421;50.202;7.852;2023-08-08T03:36:18;1.63;;;0.60;;
29218;SDS011;16421;50.202;7.852;2023-08-08T03:46:36;0.75;;;0.50;;
29218;SDS011;16421;50.202;7.852;2023-08-08T03:51:40;2.13;;;0.70;;
29218;SDS011;16421;50.202;7.852;2023-08-08T03:56:43;1.58;;;0.50;;
29218;SDS011;16421;50.202;7.852;2023-08-08T04:01:48;1.58;;;0.50;;
29218;SDS011;16421;50.202;7.852;2023-08-08T04:06:51;0.63;;;0.63;;
29218;SDS011;16421;50.202;7.852;2023-08-08T04:11:54;0.38;;;0.38;;
29218;SDS011;16421;50.202;7.852;2023-08-08T04:16:59;0.75;;;0.60;;
29218;SDS011;16421;50.202;7.852;2023-08-08T04:22:04;0.82;;;0.80;;
29218;SDS011;16421;50.202;7.852;2023-08-08T04:27:07;1.42;;;0.55;;
29218;SDS011;16421;50.202;7.852;2023-08-08T04:32:12;0.55;;;0.43;;
29218;SDS011;16421;50.202;7.852;2023-08-08T04:37:15;1.02;;;0.50;;
29218;SDS011;16421;50.202;7.852;2023-08-08T04:42:19;1.05;;;0.68;;
29218;SDS011;16421;50.202;7.852;2023-08-08T04:47:23;2.15;;;0.60;;
29218;SDS011;16421;50.202;7.852;2023-08-08T04:52:27;0.88;;;0.57;;
29218;SDS011;16421;50.202;7.852;2023-08-08T04:57:32;0.70;;;0.50;;
29218;SDS011;16421;50.202;7.852;2023-08-08T05:02:37;1.58;;;0.70;;
29218;SDS011;16421;50.202;7.852;2023-08-08T05:12:45;0.90;;;0.60;;
29218;SDS011;16421;50.202;7.852;2023-08-08T05:17:50;1.25;;;0.50;;
29218;SDS011;16421;50.202;7.852;2023-08-08T05:22:55;0.80;;;0.50;;
29218;SDS011;16421;50.202;7.852;2023-08-08T05:27:58;0.47;;;0.40;;
29218;SDS011;16421;50.202;7.852;2023-08-08T05:33:03;0.63;;;0.52;;
29218;SDS011;16421;50.202;7.852;2023-08-08T05:38:06;0.60;;;0.60;;
29218;SDS011;16421;50.202;7.852;2023-08-08T05:43:10;0.93;;;0.63;;
29218;SDS011;16421;50.202;7.852;2023-08-08T05:48:19;0.50;;;0.50;;
29218;SDS011;16421;50.202;7.852;2023-08-08T05:53:22;0.35;;;0.35;;
29218;SDS011;16421;50.202;7.852;2023-08-08T05:58:26;0.43;;;0.30;;
29218;SDS011;16421;50.202;7.852;2023-08-08T06:03:30;0.70;;;0.45;;
29218;SDS011;16421;50.202;7.852;2023-08-08T06:08:34;0.65;;;0.40;;
29218;SDS011;16421;50.202;7.852;2023-08-08T06:13:37;0.90;;;0.40;;
29218;SDS011;16421;50.202;7.852;2023-08-08T06:18:42;0.70;;;0.47;;
29218;SDS011;16421;50.202;7.852;2023-08-08T06:23:46;0.93;;;0.38;;
29218;SDS011;16421;50.202;7.852;2023-08-08T06:28:50;1.77;;;0.70;;
29218;SDS011;16421;50.202;7.852;2023-08-08T06:33:55;1.35;;;0.70;;
29218;SDS011;16421;50.202;7.852;2023-08-08T06:38:58;1.70;;;0.70;;
29218;SDS011;16421;50.202;7.852;2023-08-08T06:44:01;1.15;;;0.88;;
29218;SDS011;16421;50.202;7.852;2023-08-08T06:49:06;1.42;;;0.65;;
29218;SDS011;16421;50.202;7.852;2023-08-08T06:54:10;3.23;;;1.03;;
29218;SDS011;16421;50.202;7.852;2023-08-08T06:59:13;1.92;;;0.80;;
29218;SDS011;16421;50.202;7.852;2023-08-08T07:04:18;1.67;;;0.70;;
29218;SDS011;16421;50.202;7.852;2023-08-08T07:09:23;1.55;;;0.63;;
29218;SDS011;16421;50.202;7.852;2023-08-08T07:14:27;1.55;;;0.95;;
29218;SDS011;16421;50.202;7.852;2023-08-08T07:19:31;1.02;;;0.68;;
29218;SDS011;16421;50.202;7.852;2023-08-08T07:24:35;3.20;;;0.90;;
29218;SDS011;16421;50.202;7.852;2023-08-08T07:29:40;2.45;;;1.23;;
29218;SDS011;16421;50.202;7.852;2023-08-08T07:34:45;2.22;;;1.08;;
29218;SDS011;16421;50.202;7.852;2023-08-08T07:39:50;1.63;;;1.00;;
29218;SDS011;16421;50.202;7.852;2023-08-08T07:44:55;3.15;;;1.20;;
29218;SDS011;16421;50.202;7.852;2023-08-08T07:50:00;2.33;;;1.10;;
29218;SDS011;16421;50.202;7.852;2023-08-08T07:55:04;3.13;;;1.02;;
29218;SDS011;16421;50.202;7.852;2023-08-08T08:00:08;1.92;;;0.90;;
29218;SDS011;16421;50.202;7.852;2023-08-08T08:05:17;3.45;;;1.05;;
29218;SDS011;16421;50.202;7.852;2023-08-08T08:10:20;2.28;;;0.90;;
29218;SDS011;16421;50.202;7.852;2023-08-08T08:15:23;2.30;;;0.95;;
29218;SDS011;16421;50.202;7.852;2023-08-08T08:20:28;3.13;;;1.00;;
29218;SDS011;16421;50.202;7.852;2023-08-08T08:25:31;2.15;;;1.02;;
29218;SDS011;16421;50.202;7.852;2023-08-08T08:30:35;3.42;;;1.77;;
29218;SDS011;16421;50.202;7.852;2023-08-08T08:35:41;3.50;;;1.57;;
29218;SDS011;16421;50.202;7.852;2023-08-08T08:45:51;2.33;;;0.95;;
29218;SDS011;16421;50.202;7.852;2023-08-08T08:50:57;3.20;;;1.23;;
29218;SDS011;16421;50.202;7.852;2023-08-08T08:56:00;4.13;;;1.37;;
29218;SDS011;16421;50.202;7.852;2023-08-08T09:01:05;2.97;;;1.30;;
29218;SDS011;16421;50.202;7.852;2023-08-08T09:06:10;2.80;;;1.20;;
29218;SDS011;16421;50.202;7.852;2023-08-08T09:11:14;1.83;;;1.17;;
29218;SDS011;16421;50.202;7.852;2023-08-08T09:16:17;2.10;;;1.13;;
29218;SDS011;16421;50.202;7.852;2023-08-08T09:21:22;2.53;;;1.52;;
29218;SDS011;16421;50.202;7.852;2023-08-08T09:26:25;2.33;;;1.40;;
29218;SDS011;16421;50.202;7.852;2023-08-08T09:31:30;2.33;;;1.30;;
29218;SDS011;16421;50.202;7.852;2023-08-08T09:36:35;2.97;;;1.70;;
29218;SDS011;16421;50.202;7.852;2023-08-08T09:41:39;2.83;;;0.90;;
29218;SDS011;16421;50.202;7.852;2023-08-08T09:46:45;1.90;;;0.90;;
29218;SDS011;16421;50.202;7.852;2023-08-08T09:51:50;2.63;;;1.38;;
29218;SDS011;16421;50.202;7.852;2023-08-08T09:56:53;4.30;;;1.63;;
29218;SDS011;16421;50.202;7.852;2023-08-08T10:01:58;1.77;;;1.00;;
29218;SDS011;16421;50.202;7.852;2023-08-08T10:07:04;4.57;;;1.38;;
29218;SDS011;16421;50.202;7.852;2023-08-08T10:12:07;3.72;;;1.45;;
29218;SDS011;16421;50.202;7.852;2023-08-08T10:22:21;4.28;;;1.30;;
29218;SDS011;16421;50.202;7.852;2023-08-08T10:27:31;3.63;;;1.58;;
29218;SDS011;16421;50.202;7.852;2023-08-08T10:32:38;2.80;;;1.00;;
29218;SDS011;16421;50.202;7.852;2023-08-08T10:37:52;3.10;;;1.38;;
29218;SDS011;16421;50.202;7.852;2023-08-08T10:42:56;4.22;;;2.10;;
29218;SDS011;16421;50.202;7.852;2023-08-08T10:48:07;2.42;;;1.05;;
29218;SDS011;16421;50.202;7.852;2023-08-08T10:53:12;2.40;;;1.35;;
29218;SDS011;16421;50.202;7.852;2023-08-08T10:58:16;3.03;;;1.45;;
29218;SDS011;16421;50.202;7.852;2023-08-08T11:03:20;2.45;;;1.27;;
29218;SDS011;16421;50.202;7.852;2023-08-08T11:08:26;2.83;;;1.10;;
29218;SDS011;16421;50.202;7.852;2023-08-08T11:13:32;3.40;;;1.10;;
29218;SDS011;16421;50.202;7.852;2023-08-08T11:18:35;4.90;;;1.33;;
29218;SDS011;16421;50.202;7.852;2023-08-08T11:23:40;1.88;;;1.20;;
29218;SDS011;16421;50.202;7.852;2023-08-08T11:28:49;4.18;;;1.25;;
29218;SDS011;16421;50.202;7.852;2023-08-08T11:33:53;2.95;;;1.10;;
29218;SDS011;16421;50.202;7.852;2023-08-08T11:38:59;2.72;;;1.33;;
29218;SDS011;16421;50.202;7.852;2023-08-08T11:44:05;2.13;;;1.35;;
29218;SDS011;16421;50.202;7.852;2023-08-08T11:49:09;2.00;;;0.80;;
29218;SDS011;16421;50.202;7.852;2023-08-08T11:54:14;2.95;;;1.05;;
29218;SDS011;16421;50.202;7.852;2023-08-08T11:59:18;1.95;;;0.93;;
29218;SDS011;16421;50.202;7.852;2023-08-08T12:04:22;2.38;;;1.20;;
29218;SDS011;16421;50.202;7.852;2023-08-08T12:09:30;2.80;;;1.30;;
29218;SDS011;16421;50.202;7.852;2023-08-08T12:14:36;2.47;;;1.20;;
29218;SDS011;16421;50.202;7.852;2023-08-08T12:19:44;1.88;;;0.90;;
29218;SDS011;16421;50.202;7.852;2023-08-08T12:24:50;2.30;;;1.08;;
29218;SDS011;16421;50.202;7.852;2023-08-08T12:29:54;2.47;;;1.23;;
29218;SDS011;16421;50.202;7.852;2023-08-08T12:34:57;2.60;;;1.10;;
29218;SDS011;16421;50.202;7.852;2023-08-08T12:40:02;1.63;;;0.98;;
29218;SDS011;16421;50.202;7.852;2023-08-08T12:45:08;2.95;;;1.30;;
29218;SDS011;16421;50.202;7.852;2023-08-08T12:50:13;0.93;;;0.70;;
29218;SDS011;16421;50.202;7.852;2023-08-08T12:55:18;2.35;;;1.00;;
29218;SDS011;16421;50.202;7.852;2023-08-08T13:00:23;2.45;;;1.30;;
29218;SDS011;16421;50.202;7.852;2023-08-08T13:05:26;1.67;;;1.10;;
29218;SDS011;16421;50.202;7.852;2023-08-08T13:10:32;1.95;;;1.00;;
29218;SDS011;16421;50.202;7.852;2023-08-08T13:15:36;2.95;;;0.90;;
29218;SDS011;16421;50.202;7.852;2023-08-08T13:20:40;2.75;;;0.80;;
29218;SDS011;16421;50.202;7.852;2023-08-08T13:25:46;2.75;;;0.90;;
29218;SDS011;16421;50.202;7.852;2023-08-08T13:30:52;1.88;;;0.70;;
29218;SDS011;16421;50.202;7.852;2023-08-08T13:35:57;2.05;;;1.00;;
29218;SDS011;16421;50.202;7.852;2023-08-08T13:41:02;2.45;;;0.70;;
29218;SDS011;16421;50.202;7.852;2023-08-08T13:46:06;1.65;;;0.63;;
29218;SDS011;16421;50.202;7.852;2023-08-08T13:51:11;1.40;;;0.88;;
29218;SDS011;16421;50.202;7.852;2023-08-08T13:56:16;2.25;;;1.08;;
29218;SDS011;16421;50.202;7.852;2023-08-08T14:01:21;3.45;;;0.93;;
29218;SDS011;16421;50.202;7.852;2023-08-08T14:06:24;1.77;;;0.90;;
29218;SDS011;16421;50.202;7.852;2023-08-08T14:11:30;2.03;;;0.70;;
29218;SDS011;16421;50.202;7.852;2023-08-08T14:16:34;0.70;;;0.63;;
29218;SDS011;16421;50.202;7.852;2023-08-08T14:21:42;2.28;;;0.80;;
29218;SDS011;16421;50.202;7.852;2023-08-08T14:26:47;2.83;;;0.90;;
29218;SDS011;16421;50.202;7.852;2023-08-08T14:31:51;3.30;;;1.00;;
29218;SDS011;16421;50.202;7.852;2023-08-08T14:37:03;1.95;;;0.90;;
29218;SDS011;16421;50.202;7.852;2023-08-08T14:42:08;1.50;;;0.60;;
29218;SDS011;16421;50.202;7.852;2023-08-08T14:47:12;1.55;;;0.60;;
29218;SDS011;16421;50.202;7.852;2023-08-08T14:52:21;2.35;;;0.70;;
29218;SDS011;16421;50.202;7.852;2023-08-08T14:57:33;2.60;;;0.90;;
29218;SDS011;16421;50.202;7.852;2023-08-08T15:02:38;1.88;;;1.00;;
29218;SDS011;16421;50.202;7.852;2023-08-08T15:07:45;2.38;;;0.98;;
29218;SDS011;16421;50.202;7.852;2023-08-08T15:12:53;2.10;;;0.80;;
29218;SDS011;16421;50.202;7.852;2023-08-08T15:17:57;2.00;;;1.35;;
29218;SDS011;16421;50.202;7.852;2023-08-08T15:23:01;3.30;;;1.00;;
29218;SDS011;16421;50.202;7.852;2023-08-08T15:28:07;2.45;;;1.00;;
29218;SDS011;16421;50.202;7.852;2023-08-08T15:38:17;2.05;;;0.93;;
29218;SDS011;16421;50.202;7.852;2023-08-08T15:43:25;3.88;;;1.10;;
29218;SDS011;16421;50.202;7.852;2023-08-08T15:48:30;1.33;;;0.68;;
29218;SDS011;16421;50.202;7.852;2023-08-08T15:53:34;2.72;;;1.13;;
29218;SDS011;16421;50.202;7.852;2023-08-08T15:58:48;4.50;;;1.60;;
29218;SDS011;16421;50.202;7.852;2023-08-08T16:03:52;2.37;;;0.90;;
29218;SDS011;16421;50.202;7.852;2023-08-08T16:08:56;2.80;;;0.93;;
29218;SDS011;16421;50.202;7.852;2023-08-08T16:14:01;1.45;;;0.73;;
29218;SDS011;16421;50.202;7.852;2023-08-08T16:19:05;2.25;;;0.82;;
29218;SDS011;16421;50.202;7.852;2023-08-08T16:24:09;1.40;;;1.00;;
29218;SDS011;16421;50.202;7.852;2023-08-08T16:29:14;1.88;;;0.70;;
29218;SDS011;16421;50.202;7.852;2023-08-08T16:34:18;3.72;;;0.88;;
29218;SDS011;16421;50.202;7.852;2023-08-08T16:39:22;3.83;;;1.50;;
29218;SDS011;16421;50.202;7.852;2023-08-08T16:44:28;1.92;;;0.80;;
29218;SDS011;16421;50.202;7.852;2023-08-08T16:49:32;4.40;;;0.88;;
29218;SDS011;16421;50.202;7.852;2023-08-08T16:54:37;1.38;;;0.88;;
29218;SDS011;16421;50.202;7.852;2023-08-08T16:59:46;1.27;;;0.60;;
29218;SDS011;16421;50.202;7.852;2023-08-08T17:04:50;1.15;;;0.50;;
29218;SDS011;16421;50.202;7.852;2023-08-08T17:09:54;2.28;;;0.65;;
29218;SDS011;16421;50.202;7.852;2023-08-08T17:14:59;1.63;;;0.60;;
29218;SDS011;16421;50.202;7.852;2023-08-08T17:20:07;1.33;;;0.60;;
29218;SDS011;16421;50.202;7.852;2023-08-08T17:25:11;1.63;;;0.70;;
29218;SDS011;16421;50.202;7.852;2023-08-08T17:30:17;3.50;;;0.70;;
29218;SDS011;16421;50.202;7.852;2023-08-08T17:35:22;1.38;;;0.50;;
29218;SDS011;16421;50.202;7.852;2023-08-08T17:40:28;2.13;;;1.23;;
29218;SDS011;16421;50.202;7.852;2023-08-08T17:45:34;1.50;;;0.70;;
29218;SDS011;16421;50.202;7.852;2023-08-08T17:50:38;1.42;;;0.57;;
29218;SDS011;16421;50.202;7.852;2023-08-08T17:55:45;3.00;;;0.88;;
29218;SDS011;16421;50.202;7.852;2023-08-08T18:00:52;1.30;;;0.57;;
29218;SDS011;16421;50.202;7.852;2023-08-08T18:05:56;1.80;;;0.70;;
29218;SDS011;16421;50.202;7.852;2023-08-08T18:11:00;1.13;;;0.55;;
29218;SDS011;16421;50.202;7.852;2023-08-08T18:16:05;1.80;;;0.57;;
29218;SDS011;16421;50.202;7.852;2023-08-08T18:21:11;3.33;;;1.00;;
29218;SDS011;16421;50.202;7.852;2023-08-08T18:26:16;3.03;;;0.77;;
29218;SDS011;16421;50.202;7.852;2023-08-08T18:31:21;1.05;;;0.60;;
29218;SDS011;16421;50.202;7.852;2023-08-08T18:36:25;2.20;;;1.00;;
29218;SDS011;16421;50.202;7.852;2023-08-08T18:41:29;3.35;;;1.00;;
29218;SDS011;16421;50.202;7.852;2023-08-08T18:46:34;1.33;;;0.60;;
29218;SDS011;16421;50.202;7.852;2023-08-08T18:51:38;1.75;;;0.85;;
29218;SDS011;16421;50.202;7.852;2023-08-08T18:56:44;2.10;;;0.88;;
29218;SDS011;16421;50.202;7.852;2023-08-08T19:01:50;1.35;;;0.80;;
